createdAt,value
2022-10-17T00:02:03.500Z,12.40
2022-10-17T00:04:30.035Z,7.82
2022-10-17T00:06:56.454Z,8.90
2022-10-17T00:09:22.785Z,9.32
2022-10-17T00:11:49.086Z,8.95
2022-10-17T00:14:15.548Z,9.30
2022-10-17T00:16:42.008Z,9.68
2022-10-17T00:19:08.412Z,7.90
2022-10-17T00:21:34.829Z,9.43
2022-10-17T00:24:01.511Z,7.95
2022-10-17T00:26:29.662Z,10.52
2022-10-17T00:28:56.693Z,11.23
2022-10-17T00:31:23.903Z,9.10
2022-10-17T00:33:50.790Z,9.88
2022-10-17T00:36:21.595Z,9.05
2022-10-17T00:38:49.820Z,10.00
2022-10-17T00:41:18.279Z,7.15
2022-10-17T00:44:03.103Z,9.00
2022-10-17T00:46:30.939Z,6.50
2022-10-17T00:48:58.828Z,12.10
2022-10-17T00:51:33.928Z,7.88
2022-10-17T00:54:01.249Z,10.07
2022-10-17T00:56:27.765Z,8.95
2022-10-17T00:58:55.212Z,13.20
2022-10-17T01:01:21.782Z,9.70
2022-10-17T01:03:48.133Z,8.48
2022-10-17T01:06:14.843Z,9.05
2022-10-17T01:08:41.239Z,9.73
2022-10-17T01:11:24.808Z,8.80
2022-10-17T01:14:03.382Z,8.57
2022-10-17T01:16:38.895Z,12.23
2022-10-17T01:19:14.224Z,8.13
2022-10-17T01:24:10.013Z,8.25
2022-10-17T01:26:36.284Z,11.30
2022-10-17T01:29:20.745Z,11.05
2022-10-17T01:31:55.874Z,11.88
2022-10-17T01:34:28.721Z,11.85
2022-10-17T01:36:59.970Z,10.23
2022-10-17T01:39:28.110Z,10.70
2022-10-17T01:42:02.760Z,11.90
2022-10-17T01:44:38.639Z,16.88
2022-10-17T01:47:10.176Z,8.55
2022-10-17T01:49:37.551Z,9.38
2022-10-17T01:52:10.199Z,11.55
2022-10-17T01:54:36.563Z,10.98
2022-10-17T01:57:05.543Z,11.52
2022-10-17T01:59:40.886Z,12.88
2022-10-17T02:04:34.899Z,11.88
2022-10-17T02:07:10.871Z,8.18
2022-10-17T02:09:37.445Z,12.23
2022-10-17T02:12:23.172Z,8.88
2022-10-17T02:17:40.391Z,8.98
2022-10-17T02:20:10.031Z,9.73
2022-10-17T02:22:36.303Z,10.50
2022-10-17T02:25:12.054Z,9.95
2022-10-17T02:27:38.417Z,7.75
2022-10-17T02:30:17.545Z,10.30
2022-10-17T02:32:50.161Z,8.25
2022-10-17T02:35:17.980Z,13.02
2022-10-17T02:37:45.825Z,9.60
2022-10-17T02:40:14.539Z,7.82
2022-10-17T02:42:43.140Z,9.45
2022-10-17T02:45:10.071Z,8.45
2022-10-17T02:47:55.210Z,11.43
2022-10-17T02:50:23.428Z,9.70
2022-10-17T02:52:55.564Z,7.18
2022-10-17T02:55:34.436Z,9.52
2022-10-17T02:58:03.717Z,14.20
2022-10-17T03:00:30.138Z,7.72
2022-10-17T03:02:56.620Z,10.75
2022-10-17T03:05:24.774Z,8.68
2022-10-17T03:07:51.465Z,7.50
2022-10-17T03:10:18.186Z,10.10
2022-10-17T03:12:44.858Z,9.05
2022-10-17T03:15:11.830Z,10.98
2022-10-17T03:17:38.327Z,12.38
2022-10-17T03:20:05.645Z,7.28
2022-10-17T03:22:32.722Z,7.97
2022-10-17T03:24:59.341Z,12.70
2022-10-17T03:27:25.809Z,10.95
2022-10-17T03:29:52.121Z,9.68
2022-10-17T03:32:18.613Z,9.32
2022-10-17T03:34:44.964Z,12.13
2022-10-17T03:37:11.381Z,9.77
2022-10-17T03:39:37.660Z,9.00
2022-10-17T03:42:05.669Z,8.70
2022-10-17T03:44:34.936Z,13.52
2022-10-17T03:47:01.670Z,9.95
2022-10-17T03:49:28.097Z,10.23
2022-10-17T03:51:54.433Z,11.82
2022-10-17T03:54:20.732Z,11.60
2022-10-17T03:56:47.319Z,10.38
2022-10-17T03:59:14.600Z,10.82
2022-10-17T04:01:41.624Z,8.68
2022-10-17T04:04:08.484Z,16.20
2022-10-17T04:06:35.022Z,9.82
2022-10-17T04:09:01.469Z,10.25
2022-10-17T04:11:27.886Z,9.45
2022-10-17T04:13:55.243Z,11.77
2022-10-17T04:16:21.819Z,13.90
2022-10-17T04:18:52.306Z,11.65
2022-10-17T04:21:19.192Z,12.02
2022-10-17T04:23:45.536Z,10.32
2022-10-17T04:26:11.929Z,9.20
2022-10-17T04:31:11.819Z,9.77
2022-10-17T04:33:38.544Z,11.48
2022-10-17T04:36:06.389Z,9.23
2022-10-17T04:38:33.405Z,10.68
2022-10-17T04:41:03.645Z,8.60
2022-10-17T04:43:30.679Z,10.13
2022-10-17T04:45:57.757Z,8.57
2022-10-17T04:48:24.292Z,9.85
2022-10-17T04:50:57.604Z,9.90
2022-10-17T04:53:24.458Z,9.52
2022-10-17T04:55:50.991Z,9.48
2022-10-17T04:58:17.485Z,12.63
2022-10-17T05:00:44.203Z,10.40
2022-10-17T05:03:10.551Z,10.07
2022-10-17T05:05:38.325Z,12.20
2022-10-17T05:08:05.298Z,10.65
2022-10-17T05:10:36.444Z,11.48
2022-10-17T05:13:02.850Z,10.32
2022-10-17T05:15:31.552Z,11.38
2022-10-17T05:17:58.212Z,8.77
2022-10-17T05:20:24.877Z,10.70
2022-10-17T05:22:51.306Z,9.38
2022-10-17T05:25:17.642Z,14.90
2022-10-17T05:27:44.084Z,9.75
2022-10-17T05:30:10.517Z,9.65
2022-10-17T05:32:36.888Z,9.50
2022-10-17T05:35:04.323Z,19.60
2022-10-17T05:37:31.599Z,8.30
2022-10-17T05:39:57.999Z,17.17
2022-10-17T05:42:24.499Z,7.70
2022-10-17T05:44:50.903Z,8.38
2022-10-17T05:47:17.237Z,9.70
2022-10-17T05:49:48.616Z,11.30
2022-10-17T05:52:17.700Z,8.52
2022-10-17T05:54:43.990Z,8.80
2022-10-17T05:57:10.457Z,12.00
2022-10-17T05:59:38.225Z,9.40
2022-10-17T06:02:04.612Z,9.60
2022-10-17T06:04:30.924Z,8.43
2022-10-17T06:06:57.418Z,18.95
2022-10-17T06:09:23.911Z,9.30
2022-10-17T06:11:50.221Z,10.85
2022-10-17T06:14:16.601Z,9.90
2022-10-17T06:16:43.709Z,13.43
2022-10-17T06:19:11.583Z,19.38
2022-10-17T06:21:38.856Z,15.85
2022-10-17T06:24:05.181Z,12.88
2022-10-17T06:26:31.525Z,10.77
2022-10-17T06:28:57.977Z,12.32
2022-10-17T06:31:24.335Z,9.70
2022-10-17T06:33:50.633Z,14.27
2022-10-17T06:36:17.733Z,14.48
2022-10-17T06:38:44.034Z,13.95
2022-10-17T06:41:13.288Z,13.73
2022-10-17T06:43:40.386Z,14.25
2022-10-17T06:46:06.820Z,10.85
2022-10-17T06:48:33.500Z,12.02
2022-10-17T06:51:00.573Z,9.52
2022-10-17T06:53:28.491Z,13.93
2022-10-17T06:55:55.371Z,10.52
2022-10-17T06:58:22.220Z,10.18
2022-10-17T07:00:48.651Z,15.90
2022-10-17T07:03:15.115Z,11.70
2022-10-17T07:05:41.405Z,10.95
2022-10-17T07:08:07.822Z,11.90
2022-10-17T07:10:38.232Z,15.00
2022-10-17T07:13:04.570Z,13.02
2022-10-17T07:15:32.393Z,14.73
2022-10-17T07:17:58.665Z,14.45
2022-10-17T07:20:25.106Z,9.95
2022-10-17T07:22:51.502Z,11.07
2022-10-17T07:25:17.836Z,10.45
2022-10-17T07:27:44.145Z,10.57
2022-10-17T07:30:10.703Z,13.68
2022-10-17T07:32:37.221Z,15.25
2022-10-17T07:35:03.603Z,12.30
2022-10-17T07:37:30.318Z,14.90
2022-10-17T07:39:56.906Z,15.95
2022-10-17T07:42:23.493Z,14.85
2022-10-17T07:44:49.759Z,14.85
2022-10-17T07:47:16.160Z,12.35
2022-10-17T07:49:44.090Z,17.98
2022-10-17T07:52:11.732Z,16.48
2022-10-17T07:54:38.067Z,14.38
2022-10-17T07:57:04.633Z,10.05
2022-10-17T07:59:32.340Z,9.02
2022-10-17T08:01:59.407Z,8.80
2022-10-17T08:04:26.315Z,7.18
2022-10-17T08:06:56.407Z,9.25
2022-10-17T08:09:26.889Z,12.77
2022-10-17T08:11:54.019Z,9.50
2022-10-17T08:14:20.446Z,8.75
2022-10-17T08:16:46.729Z,13.13
2022-10-17T08:19:13.143Z,9.05
2022-10-17T08:21:39.437Z,10.32
2022-10-17T08:24:05.809Z,13.50
2022-10-17T08:26:32.171Z,12.48
2022-10-17T08:28:58.563Z,13.90
2022-10-17T08:31:24.972Z,10.38
2022-10-17T08:33:51.296Z,9.00
2022-10-17T08:36:18.471Z,11.73
2022-10-17T08:38:47.989Z,11.65
2022-10-17T08:41:20.803Z,14.27
2022-10-17T08:43:55.388Z,13.10
2022-10-17T08:46:21.804Z,11.85
2022-10-17T08:48:49.424Z,14.20
2022-10-17T08:51:21.687Z,10.63
2022-10-17T08:53:57.945Z,11.88
2022-10-17T08:56:44.139Z,11.20
2022-10-17T08:59:17.669Z,12.25
2022-10-17T09:01:48.396Z,14.73
2022-10-17T09:04:33.483Z,10.10
2022-10-17T09:07:05.456Z,16.58
2022-10-17T09:09:34.934Z,12.70
2022-10-17T09:12:10.159Z,11.00
2022-10-17T09:17:09.519Z,9.88
2022-10-17T09:19:38.157Z,15.25
2022-10-17T09:22:09.353Z,11.25
2022-10-17T09:24:55.735Z,10.25
2022-10-17T09:27:33.768Z,12.32
2022-10-17T09:30:40.524Z,12.88
2022-10-17T09:33:34.672Z,9.45
2022-10-17T09:36:05.450Z,12.85
2022-10-17T09:38:37.834Z,9.32
2022-10-17T09:41:15.797Z,10.35
2022-10-17T09:43:55.796Z,13.32
2022-10-17T09:46:34.831Z,9.05
2022-10-17T09:49:21.360Z,10.88
2022-10-17T09:51:48.114Z,12.32
2022-10-17T09:54:23.166Z,15.55
2022-10-17T09:57:03.608Z,14.95
2022-10-17T09:59:34.722Z,12.55
2022-10-17T10:02:13.123Z,14.82
2022-10-17T10:05:07.085Z,13.93
2022-10-17T10:07:35.468Z,17.15
2022-10-17T10:10:03.901Z,15.60
2022-10-17T10:12:32.480Z,13.10
2022-10-17T10:14:58.964Z,7.75
2022-10-17T10:17:33.510Z,12.18
2022-10-17T10:19:59.932Z,9.32
2022-10-17T10:22:26.751Z,8.43
2022-10-17T10:25:15.136Z,15.80
2022-10-17T10:27:42.286Z,13.77
2022-10-17T10:30:17.411Z,11.30
2022-10-17T10:32:45.522Z,11.38
2022-10-17T10:35:34.807Z,17.02
2022-10-17T10:38:02.166Z,16.65
2022-10-17T10:40:33.668Z,12.02
2022-10-17T10:43:05.111Z,12.68
2022-10-17T10:45:53.050Z,13.50
2022-10-17T10:48:24.026Z,10.95
2022-10-17T10:51:00.748Z,15.98
2022-10-17T10:53:38.750Z,12.02
2022-10-17T10:56:05.169Z,10.82
2022-10-17T10:58:51.790Z,12.13
2022-10-17T11:01:27.558Z,14.77
2022-10-17T11:03:56.907Z,10.55
2022-10-17T11:06:26.206Z,10.10
2022-10-17T11:08:57.732Z,11.68
2022-10-17T11:11:39.014Z,8.25
2022-10-17T11:14:13.009Z,11.15
2022-10-17T11:16:43.529Z,17.77
2022-10-17T11:19:25.354Z,13.38
2022-10-17T11:21:58.225Z,12.13
2022-10-17T11:24:27.966Z,14.10
2022-10-17T11:27:01.353Z,18.35
2022-10-17T11:29:32.376Z,13.15
2022-10-17T11:32:03.088Z,14.48
2022-10-17T11:34:31.095Z,13.85
2022-10-17T11:37:02.318Z,16.63
2022-10-17T11:39:39.160Z,14.77
2022-10-17T11:42:08.873Z,14.52
2022-10-17T11:44:37.037Z,13.93
2022-10-17T11:47:06.376Z,10.60
2022-10-17T11:49:39.911Z,15.00
2022-10-17T11:52:08.082Z,13.05
2022-10-17T11:54:54.582Z,14.43
2022-10-17T11:57:21.104Z,10.80
2022-10-17T11:59:58.279Z,13.82
2022-10-17T12:02:47.961Z,15.52
2022-10-17T12:05:24.116Z,17.73
2022-10-17T12:08:08.975Z,13.25
2022-10-17T12:10:56.987Z,13.32
2022-10-17T12:13:29.707Z,9.77
2022-10-17T12:15:57.102Z,11.30
2022-10-17T12:18:25.515Z,14.80
2022-10-17T12:20:58.543Z,17.88
2022-10-17T12:23:28.892Z,14.23
2022-10-17T12:25:57.129Z,12.50
2022-10-17T12:28:29.306Z,16.15
2022-10-17T12:31:13.620Z,11.20
2022-10-17T12:33:45.856Z,11.88
2022-10-17T12:36:27.111Z,12.70
2022-10-17T12:39:02.439Z,14.00
2022-10-17T12:41:40.902Z,13.73
2022-10-17T12:44:10.243Z,18.77
2022-10-17T12:46:51.902Z,14.93
2022-10-17T12:49:22.480Z,15.75
2022-10-17T12:52:05.942Z,16.00
2022-10-17T12:54:47.133Z,23.52
2022-10-17T12:57:22.096Z,15.45
2022-10-17T12:59:48.727Z,23.25
2022-10-17T13:02:22.194Z,19.45
2022-10-17T13:04:50.231Z,15.23
2022-10-17T13:07:18.997Z,17.70
2022-10-17T13:09:45.385Z,16.13
2022-10-17T13:12:15.077Z,17.50
2022-10-17T13:14:42.731Z,18.00
2022-10-17T13:17:26.583Z,19.02
2022-10-17T13:19:53.234Z,21.33
2022-10-17T13:22:21.309Z,20.27
2022-10-17T13:24:48.235Z,22.73
2022-10-17T13:27:28.490Z,20.70
2022-10-17T13:29:56.451Z,25.45
2022-10-17T13:32:23.783Z,22.75
2022-10-17T13:35:24.405Z,26.65
2022-10-17T13:37:53.987Z,26.95
2022-10-17T13:40:44.049Z,23.70
2022-10-17T13:43:13.365Z,20.17
2022-10-17T13:45:39.664Z,24.65
2022-10-17T13:48:08.249Z,22.55
2022-10-17T13:50:44.808Z,24.15
2022-10-17T13:53:30.708Z,19.95
2022-10-17T13:56:22.848Z,26.23
2022-10-17T13:58:46.986Z,22.77
2022-10-17T14:01:14.228Z,15.98
2022-10-17T14:03:48.133Z,23.83
2022-10-17T14:06:18.167Z,28.73
2022-10-17T14:08:49.751Z,27.13
2022-10-17T14:11:20.895Z,25.08
2022-10-17T14:13:51.296Z,23.02
2022-10-17T14:16:17.698Z,27.77
2022-10-17T14:18:47.714Z,23.17
2022-10-17T14:24:14.120Z,28.75
2022-10-17T14:26:47.480Z,24.65
2022-10-17T14:29:25.122Z,33.10
2022-10-17T14:31:57.445Z,30.00
2022-10-17T14:34:25.036Z,25.98
2022-10-17T14:36:51.997Z,25.50
2022-10-17T14:39:20.250Z,22.35
2022-10-17T14:41:47.156Z,34.60
2022-10-17T14:44:19.495Z,26.17
2022-10-17T14:46:50.534Z,26.52
2022-10-17T14:49:24.299Z,24.48
2022-10-17T14:52:23.554Z,25.67
2022-10-17T14:54:49.987Z,27.73
2022-10-17T14:57:34.795Z,26.02
2022-10-17T15:00:01.405Z,27.30
2022-10-17T15:02:29.051Z,33.45
2022-10-17T15:04:55.748Z,26.55
2022-10-17T15:07:22.362Z,27.63
2022-10-17T15:09:49.823Z,27.15
2022-10-17T15:12:17.495Z,25.92
2022-10-17T15:14:44.327Z,23.50
2022-10-17T15:17:15.346Z,24.23
2022-10-17T15:19:41.700Z,20.77
2022-10-17T15:22:07.979Z,25.67
2022-10-17T15:24:34.283Z,26.73
2022-10-17T15:27:00.630Z,23.52
2022-10-17T15:29:26.956Z,33.47
2022-10-17T15:31:53.332Z,26.95
2022-10-17T15:34:19.597Z,25.13
2022-10-17T15:36:49.623Z,28.20
2022-10-17T15:39:15.981Z,26.80
2022-10-17T15:41:42.295Z,27.45
2022-10-17T15:44:08.597Z,32.45
2022-10-17T15:46:35.500Z,27.20
2022-10-17T15:49:03.528Z,47.03
2022-10-17T15:51:29.837Z,30.60
2022-10-17T15:53:56.128Z,32.30
2022-10-17T15:56:26.864Z,35.45
2022-10-17T15:58:53.327Z,29.65
2022-10-17T16:01:22.008Z,27.40
2022-10-17T16:03:50.236Z,28.90
2022-10-17T16:06:17.892Z,24.98
2022-10-17T16:08:44.485Z,23.00
2022-10-17T16:11:25.037Z,28.55
2022-10-17T16:13:52.534Z,23.65
2022-10-17T16:16:19.042Z,22.70
2022-10-17T16:18:45.314Z,26.33
2022-10-17T16:21:13.756Z,21.10
2022-10-17T16:23:40.128Z,22.23
2022-10-17T16:26:07.281Z,20.45
2022-10-17T16:28:33.957Z,23.40
2022-10-17T16:31:00.467Z,25.25
2022-10-17T16:33:26.807Z,24.13
2022-10-17T16:35:53.225Z,18.73
2022-10-17T16:38:19.507Z,23.10
2022-10-17T16:40:45.773Z,30.67
2022-10-17T16:43:12.736Z,26.20
2022-10-17T16:45:39.481Z,22.33
2022-10-17T16:48:06.231Z,20.63
2022-10-17T16:50:35.756Z,22.13
2022-10-17T16:53:03.284Z,19.30
2022-10-17T16:55:29.614Z,21.17
2022-10-17T16:57:56.041Z,16.50
2022-10-17T17:00:22.414Z,18.65
2022-10-17T17:02:48.959Z,19.92
2022-10-17T17:05:15.552Z,15.52
2022-10-17T17:07:41.903Z,19.83
2022-10-17T17:10:08.436Z,18.08
2022-10-17T17:12:35.655Z,18.95
2022-10-17T17:15:02.521Z,14.85
2022-10-17T17:17:37.156Z,20.77
2022-10-17T17:20:11.011Z,14.77
2022-10-17T17:22:37.292Z,21.27
2022-10-17T17:25:03.757Z,20.25
2022-10-17T17:27:30.328Z,16.20
2022-10-17T17:29:56.848Z,17.77
2022-10-17T17:32:23.171Z,19.85
2022-10-17T17:34:49.636Z,12.18
2022-10-17T17:37:16.048Z,24.52
2022-10-17T17:39:42.762Z,17.52
2022-10-17T17:42:09.235Z,28.02
2022-10-17T17:44:35.570Z,17.60
2022-10-17T17:47:02.258Z,19.90
2022-10-17T17:49:28.656Z,18.73
2022-10-17T17:51:54.972Z,17.15
2022-10-17T17:54:21.496Z,23.20
2022-10-17T17:56:47.808Z,21.30
2022-10-17T17:59:14.143Z,14.23
2022-10-17T18:01:40.709Z,18.10
2022-10-17T18:04:11.326Z,21.05
2022-10-17T18:06:38.369Z,23.80
2022-10-17T18:09:05.560Z,21.55
2022-10-17T18:11:31.990Z,15.98
2022-10-17T18:14:02.858Z,13.75
2022-10-17T18:16:30.214Z,22.63
2022-10-17T18:18:56.768Z,15.25
2022-10-17T18:21:23.451Z,15.25
2022-10-17T18:23:50.333Z,17.35
2022-10-17T18:26:17.053Z,15.57
2022-10-17T18:28:44.335Z,19.42
2022-10-17T18:31:12.369Z,17.65
2022-10-17T18:33:39.544Z,16.63
2022-10-17T18:36:07.418Z,15.82
2022-10-17T18:38:33.997Z,17.55
2022-10-17T18:41:09.343Z,13.05
2022-10-17T18:43:36.639Z,15.60
2022-10-17T18:46:04.752Z,11.45
2022-10-17T18:48:32.522Z,14.65
2022-10-17T18:50:59.314Z,16.05
2022-10-17T18:53:25.794Z,17.20
2022-10-17T18:55:52.522Z,16.77
2022-10-17T18:58:19.614Z,16.60
2022-10-17T19:00:46.051Z,14.90
2022-10-17T19:03:12.606Z,16.40
2022-10-17T19:05:39.983Z,16.90
2022-10-17T19:08:06.539Z,17.48
2022-10-17T19:10:33.301Z,15.00
2022-10-17T19:13:00.053Z,18.77
2022-10-17T19:15:27.352Z,15.75
2022-10-17T19:17:53.673Z,14.77
2022-10-17T19:20:20.061Z,15.50
2022-10-17T19:22:46.514Z,25.08
2022-10-17T19:25:13.157Z,20.30
2022-10-17T19:27:39.585Z,15.60
2022-10-17T19:30:06.410Z,16.38
2022-10-17T19:32:33.190Z,21.60
2022-10-17T19:34:59.779Z,25.35
2022-10-17T19:37:26.218Z,19.92
2022-10-17T19:39:52.573Z,19.42
2022-10-17T19:42:18.942Z,22.85
2022-10-17T19:44:45.723Z,21.63
2022-10-17T19:47:12.109Z,17.92
2022-10-17T19:49:43.609Z,17.52
2022-10-17T19:52:13.035Z,24.57
2022-10-17T19:54:41.006Z,15.20
2022-10-17T19:57:10.444Z,18.30
2022-10-17T19:59:37.359Z,17.92
2022-10-17T20:02:03.996Z,15.35
2022-10-17T20:04:30.668Z,19.10
2022-10-17T20:06:59.829Z,23.33
2022-10-17T20:09:26.800Z,20.05
2022-10-17T20:11:53.754Z,16.83
2022-10-17T20:14:20.333Z,18.50
2022-10-17T20:16:51.024Z,19.30
2022-10-17T20:19:23.320Z,19.77
2022-10-17T20:21:50.043Z,14.75
2022-10-17T20:24:18.723Z,20.40
2022-10-17T20:26:45.216Z,20.92
2022-10-17T20:29:13.732Z,19.30
2022-10-17T20:31:40.980Z,18.17
2022-10-17T20:34:07.295Z,17.10
2022-10-17T20:36:37.218Z,19.98
2022-10-17T20:39:04.610Z,19.55
2022-10-17T20:41:30.976Z,19.48
2022-10-17T20:43:57.380Z,18.65
2022-10-17T20:46:36.933Z,18.88
2022-10-17T20:49:04.699Z,14.75
2022-10-17T20:51:31.090Z,16.73
2022-10-17T20:53:57.897Z,17.65
2022-10-17T20:56:26.932Z,15.85
2022-10-17T20:58:57.752Z,19.58
2022-10-17T21:01:25.409Z,18.13
2022-10-17T21:03:51.860Z,18.13
2022-10-17T21:06:21.669Z,20.25
2022-10-17T21:08:48.443Z,17.08
2022-10-17T21:11:17.702Z,16.40
2022-10-17T21:13:44.303Z,24.58
2022-10-17T21:16:17.692Z,23.95
2022-10-17T21:18:44.722Z,14.85
2022-10-17T21:21:18.861Z,19.83
2022-10-17T21:23:46.617Z,18.02
2022-10-17T21:26:13.509Z,20.88
2022-10-17T21:28:40.790Z,16.20
2022-10-17T21:31:17.701Z,18.10
2022-10-17T21:33:45.756Z,21.33
2022-10-17T21:36:13.753Z,17.38
2022-10-17T21:38:40.440Z,21.48
2022-10-17T21:41:07.752Z,27.33
2022-10-17T21:43:34.743Z,16.70
2022-10-17T21:46:02.080Z,13.75
2022-10-17T21:48:28.612Z,14.30
2022-10-17T21:51:01.532Z,20.65
2022-10-17T21:53:28.104Z,20.23
2022-10-17T21:56:04.903Z,14.70
2022-10-17T21:58:31.394Z,13.98
2022-10-17T22:01:11.567Z,13.93
2022-10-17T22:03:44.086Z,13.80
2022-10-17T22:09:00.810Z,17.83
2022-10-17T22:11:29.095Z,17.92
2022-10-17T22:14:00.032Z,16.27
2022-10-17T22:16:35.557Z,19.15
2022-10-17T22:19:06.090Z,13.60
2022-10-17T22:21:33.559Z,12.68
2022-10-17T22:24:00.971Z,19.08
2022-10-17T22:26:28.308Z,12.30
2022-10-17T22:28:54.962Z,14.50
2022-10-17T22:31:21.672Z,10.63
2022-10-17T22:33:48.197Z,13.77
2022-10-17T22:36:14.987Z,16.13
2022-10-17T22:38:41.450Z,16.25
2022-10-17T22:41:10.066Z,10.02
2022-10-17T22:43:36.371Z,11.55
2022-10-17T22:46:03.835Z,9.55
2022-10-17T22:48:30.837Z,10.75
2022-10-17T22:50:58.063Z,15.52
2022-10-17T22:53:26.421Z,11.98
2022-10-17T22:55:53.947Z,17.77
2022-10-17T22:58:20.716Z,14.70
2022-10-17T23:00:47.783Z,14.80
2022-10-17T23:03:14.504Z,8.80
2022-10-17T23:05:40.928Z,9.93
2022-10-17T23:08:07.262Z,8.25
2022-10-17T23:10:33.828Z,7.72
2022-10-17T23:13:00.231Z,7.57
2022-10-17T23:15:26.573Z,7.50
2022-10-17T23:17:53.152Z,7.60
2022-10-17T23:20:19.701Z,8.48
2022-10-17T23:22:46.152Z,7.15
2022-10-17T23:25:12.560Z,7.95
2022-10-17T23:27:38.948Z,9.23
2022-10-17T23:30:05.554Z,8.05
2022-10-17T23:32:32.337Z,12.30
2022-10-17T23:34:59.049Z,18.48
2022-10-17T23:37:28.772Z,8.25
2022-10-17T23:39:55.200Z,9.38
2022-10-17T23:42:21.630Z,7.40
2022-10-17T23:44:48.060Z,7.07
2022-10-17T23:47:14.408Z,12.45
2022-10-17T23:49:40.828Z,8.95
2022-10-17T23:52:07.216Z,8.57
2022-10-17T23:54:33.884Z,7.10
2022-10-17T23:57:00.477Z,16.92
2022-10-17T23:59:26.867Z,16.85
